sensor_id;sensor_type;location;lat;lon;timestamp;pressure;altitude;pressure_sealevel;temperature;humidity
22572;BME280;11452;53.368;14.658;2022-12-07T00:00:34;100560.89;;;4.99;80.75
22572;BME280;11452;53.368;14.658;2022-12-07T00:05:40;100561.97;;;5.05;81.22
22572;BME280;11452;53.368;14.658;2022-12-07T00:10:45;100555.53;;;5.12;81.14
22572;BME280;11452;53.368;14.658;2022-12-07T00:15:51;100562.11;;;5.14;81.16
22572;BME280;11452;53.368;14.658;2022-12-07T00:21:04;100552.53;;;5.10;81.03
22572;BME280;11452;53.368;14.658;2022-12-07T00:26:12;100553.64;;;5.16;80.90
22572;BME280;11452;53.368;14.658;2022-12-07T00:31:21;100550.80;;;5.20;80.72
22572;BME280;11452;53.368;14.658;2022-12-07T00:36:27;100540.34;;;5.17;80.77
22572;BME280;11452;53.368;14.658;2022-12-07T00:41:32;100540.91;;;5.26;80.49
22572;BME280;11452;53.368;14.658;2022-12-07T00:46:38;100540.91;;;5.26;80.49
22572;BME280;11452;53.368;14.658;2022-12-07T00:51:43;100541.20;;;5.30;80.27
22572;BME280;11452;53.368;14.658;2022-12-07T00:56:49;100537.46;;;5.35;80.25
22572;BME280;11452;53.368;14.658;2022-12-07T01:01:54;100529.79;;;5.28;79.83
22572;BME280;11452;53.368;14.658;2022-12-07T01:07:00;100528.98;;;5.26;80.29
22572;BME280;11452;53.368;14.658;2022-12-07T01:12:05;100524.95;;;5.27;80.29
22572;BME280;11452;53.368;14.658;2022-12-07T01:17:11;100524.95;;;5.27;80.29
22572;BME280;11452;53.368;14.658;2022-12-07T01:22:16;100511.54;;;5.32;80.36
22572;BME280;11452;53.368;14.658;2022-12-07T01:27:22;100512.86;;;5.32;80.53
22572;BME280;11452;53.368;14.658;2022-12-07T01:32:27;100500.19;;;5.28;80.58
22572;BME280;11452;53.368;14.658;2022-12-07T01:37:37;100500.19;;;5.28;80.58
22572;BME280;11452;53.368;14.658;2022-12-07T01:42:43;100511.92;;;5.21;79.92
22572;BME280;11452;53.368;14.658;2022-12-07T01:47:52;100490.83;;;5.19;80.44
22572;BME280;11452;53.368;14.658;2022-12-07T01:52:58;100499.75;;;5.17;80.21
22572;BME280;11452;53.368;14.658;2022-12-07T01:58:04;100476.77;;;5.17;80.34
22572;BME280;11452;53.368;14.658;2022-12-07T02:03:37;100476.80;;;5.28;80.21
22572;BME280;11452;53.368;14.658;2022-12-07T02:08:43;100476.80;;;5.28;80.21
22572;BME280;11452;53.368;14.658;2022-12-07T02:13:49;100474.38;;;5.21;79.95
22572;BME280;11452;53.368;14.658;2022-12-07T02:19:00;100477.37;;;5.24;80.13
22572;BME280;11452;53.368;14.658;2022-12-07T02:30:27;100462.14;;;5.19;80.00
22572;BME280;11452;53.368;14.658;2022-12-07T02:34:47;100463.67;;;5.25;79.81
22572;BME280;11452;53.368;14.658;2022-12-07T02:39:54;100449.36;;;5.18;79.22
22572;BME280;11452;53.368;14.658;2022-12-07T02:45:00;100444.34;;;5.11;79.47
22572;BME280;11452;53.368;14.658;2022-12-07T02:50:07;100438.65;;;5.10;79.55
22572;BME280;11452;53.368;14.658;2022-12-07T02:55:25;100429.95;;;5.06;79.11
22572;BME280;11452;53.368;14.658;2022-12-07T03:00:34;100428.48;;;4.99;79.21
22572;BME280;11452;53.368;14.658;2022-12-07T03:06:06;100428.94;;;4.99;79.16
22572;BME280;11452;53.368;14.658;2022-12-07T03:11:26;100428.25;;;4.94;78.73
22572;BME280;11452;53.368;14.658;2022-12-07T03:16:32;100407.88;;;4.96;78.62
22572;BME280;11452;53.368;14.658;2022-12-07T03:21:39;100407.88;;;4.96;78.62
22572;BME280;11452;53.368;14.658;2022-12-07T03:26:47;100398.95;;;4.98;78.55
22572;BME280;11452;53.368;14.658;2022-12-07T03:32:08;100391.05;;;4.85;78.31
22572;BME280;11452;53.368;14.658;2022-12-07T03:37:20;100399.92;;;4.84;78.39
22572;BME280;11452;53.368;14.658;2022-12-07T03:42:25;100392.52;;;4.82;78.74
22572;BME280;11452;53.368;14.658;2022-12-07T03:47:43;100381.44;;;4.82;78.68
22572;BME280;11452;53.368;14.658;2022-12-07T03:52:57;100379.80;;;4.80;78.53
22572;BME280;11452;53.368;14.658;2022-12-07T03:57:59;100366.67;;;4.77;78.54
22572;BME280;11452;53.368;14.658;2022-12-07T04:03:05;100362.30;;;4.76;78.51
22572;BME280;11452;53.368;14.658;2022-12-07T04:08:10;100350.74;;;4.78;78.32
22572;BME280;11452;53.368;14.658;2022-12-07T04:13:16;100350.74;;;4.78;78.32
22572;BME280;11452;53.368;14.658;2022-12-07T04:18:22;100345.59;;;4.64;77.40
22572;BME280;11452;53.368;14.658;2022-12-07T04:23:28;100343.11;;;4.59;77.54
22572;BME280;11452;53.368;14.658;2022-12-07T04:28:33;100339.08;;;4.61;77.74
22572;BME280;11452;53.368;14.658;2022-12-07T04:33:38;100331.48;;;4.63;77.80
22572;BME280;11452;53.368;14.658;2022-12-07T04:38:44;100310.60;;;4.56;76.89
22572;BME280;11452;53.368;14.658;2022-12-07T04:43:49;100317.27;;;4.54;77.19
22572;BME280;11452;53.368;14.658;2022-12-07T04:48:55;100306.74;;;4.52;76.82
22572;BME280;11452;53.368;14.658;2022-12-07T04:54:01;100308.70;;;4.59;77.05
22572;BME280;11452;53.368;14.658;2022-12-07T04:59:07;100303.61;;;4.65;77.16
22572;BME280;11452;53.368;14.658;2022-12-07T05:04:12;100296.02;;;4.67;77.00
22572;BME280;11452;53.368;14.658;2022-12-07T05:09:18;100297.57;;;4.73;76.76
22572;BME280;11452;53.368;14.658;2022-12-07T05:14:23;100295.38;;;4.72;76.85
22572;BME280;11452;53.368;14.658;2022-12-07T05:19:29;100285.89;;;4.67;76.47
22572;BME280;11452;53.368;14.658;2022-12-07T05:24:34;100273.06;;;4.68;76.64
22572;BME280;11452;53.368;14.658;2022-12-07T05:29:40;100270.30;;;4.71;76.49
22572;BME280;11452;53.368;14.658;2022-12-07T05:34:45;100266.95;;;4.77;76.63
22572;BME280;11452;53.368;14.658;2022-12-07T05:39:51;100261.14;;;4.79;76.48
22572;BME280;11452;53.368;14.658;2022-12-07T05:44:56;100257.97;;;4.81;76.48
22572;BME280;11452;53.368;14.658;2022-12-07T05:50:03;100261.60;;;4.79;76.47
22572;BME280;11452;53.368;14.658;2022-12-07T05:55:09;100255.51;;;4.77;75.68
22572;BME280;11452;53.368;14.658;2022-12-07T06:00:15;100247.22;;;4.74;76.09
22572;BME280;11452;53.368;14.658;2022-12-07T06:05:20;100237.85;;;4.66;76.20
22572;BME280;11452;53.368;14.658;2022-12-07T06:10:26;100234.61;;;4.59;75.93
22572;BME280;11452;53.368;14.658;2022-12-07T06:15:32;100232.30;;;4.62;76.13
22572;BME280;11452;53.368;14.658;2022-12-07T06:20:38;100227.55;;;4.70;76.61
22572;BME280;11452;53.368;14.658;2022-12-07T06:25:45;100220.66;;;4.66;76.04
22572;BME280;11452;53.368;14.658;2022-12-07T06:31:01;100218.92;;;4.65;76.22
22572;BME280;11452;53.368;14.658;2022-12-07T06:36:07;100208.49;;;4.62;76.26
22572;BME280;11452;53.368;14.658;2022-12-07T06:41:13;100204.00;;;4.64;76.24
22572;BME280;11452;53.368;14.658;2022-12-07T06:46:18;100199.00;;;4.56;76.22
22572;BME280;11452;53.368;14.658;2022-12-07T06:51:24;100199.58;;;4.52;76.18
22572;BME280;11452;53.368;14.658;2022-12-07T06:56:30;100198.84;;;4.49;76.31
22572;BME280;11452;53.368;14.658;2022-12-07T07:01:36;100199.36;;;4.47;76.18
22572;BME280;11452;53.368;14.658;2022-12-07T07:06:41;100196.46;;;4.43;76.25
22572;BME280;11452;53.368;14.658;2022-12-07T07:11:47;100194.13;;;4.45;76.66
22572;BME280;11452;53.368;14.658;2022-12-07T07:16:53;100193.76;;;4.44;76.45
22572;BME280;11452;53.368;14.658;2022-12-07T07:21:58;100180.90;;;4.45;76.70
22572;BME280;11452;53.368;14.658;2022-12-07T07:27:03;100183.08;;;4.46;76.76
22572;BME280;11452;53.368;14.658;2022-12-07T07:32:09;100185.08;;;4.41;76.55
22572;BME280;11452;53.368;14.658;2022-12-07T07:37:14;100178.46;;;4.41;76.97
22572;BME280;11452;53.368;14.658;2022-12-07T07:42:22;100180.02;;;4.35;77.14
22572;BME280;11452;53.368;14.658;2022-12-07T07:47:27;100180.48;;;4.34;77.31
22572;BME280;11452;53.368;14.658;2022-12-07T07:52:33;100174.28;;;4.45;77.84
22572;BME280;11452;53.368;14.658;2022-12-07T07:57:39;100175.49;;;4.48;77.90
22572;BME280;11452;53.368;14.658;2022-12-07T08:02:45;100163.45;;;4.41;77.79
22572;BME280;11452;53.368;14.658;2022-12-07T08:07:51;100175.70;;;4.44;78.02
22572;BME280;11452;53.368;14.658;2022-12-07T08:12:56;100166.90;;;4.43;78.17
22572;BME280;11452;53.368;14.658;2022-12-07T08:18:18;100171.58;;;4.47;78.36
22572;BME280;11452;53.368;14.658;2022-12-07T08:23:24;100169.20;;;4.41;78.07
22572;BME280;11452;53.368;14.658;2022-12-07T08:28:31;100169.80;;;4.47;78.13
22572;BME280;11452;53.368;14.658;2022-12-07T08:33:37;100171.64;;;4.45;78.43
22572;BME280;11452;53.368;14.658;2022-12-07T08:38:43;100176.34;;;4.39;78.24
22572;BME280;11452;53.368;14.658;2022-12-07T08:43:51;100175.94;;;4.38;78.47
22572;BME280;11452;53.368;14.658;2022-12-07T08:49:02;100177.35;;;4.25;78.16
22572;BME280;11452;53.368;14.658;2022-12-07T08:54:09;100174.08;;;4.18;78.58
22572;BME280;11452;53.368;14.658;2022-12-07T08:59:16;100168.04;;;4.14;78.89
22572;BME280;11452;53.368;14.658;2022-12-07T09:04:24;100171.72;;;4.22;79.58
22572;BME280;11452;53.368;14.658;2022-12-07T09:09:30;100171.22;;;4.34;79.29
22572;BME280;11452;53.368;14.658;2022-12-07T09:14:36;100168.36;;;4.50;79.94
22572;BME280;11452;53.368;14.658;2022-12-07T09:19:42;100168.36;;;4.50;79.94
22572;BME280;11452;53.368;14.658;2022-12-07T09:24:47;100153.72;;;4.64;80.33
22572;BME280;11452;53.368;14.658;2022-12-07T09:29:53;100151.91;;;4.64;80.05
22572;BME280;11452;53.368;14.658;2022-12-07T09:34:58;100145.11;;;4.69;79.86
22572;BME280;11452;53.368;14.658;2022-12-07T09:40:05;100140.40;;;4.65;79.75
22572;BME280;11452;53.368;14.658;2022-12-07T09:45:25;100140.40;;;4.65;79.75
22572;BME280;11452;53.368;14.658;2022-12-07T09:50:31;100158.17;;;4.51;79.61
22572;BME280;11452;53.368;14.658;2022-12-07T09:55:37;100148.58;;;4.49;78.99
22572;BME280;11452;53.368;14.658;2022-12-07T10:00:43;100150.64;;;4.52;79.38
22572;BME280;11452;53.368;14.658;2022-12-07T10:05:51;100137.16;;;4.69;79.85
22572;BME280;11452;53.368;14.658;2022-12-07T10:10:57;100147.35;;;4.68;78.92
22572;BME280;11452;53.368;14.658;2022-12-07T10:16:04;100153.97;;;4.68;78.83
22572;BME280;11452;53.368;14.658;2022-12-07T10:21:25;100160.86;;;4.62;78.77
22572;BME280;11452;53.368;14.658;2022-12-07T10:26:40;100159.20;;;4.59;78.61
22572;BME280;11452;53.368;14.658;2022-12-07T10:31:48;100162.46;;;4.76;79.29
22572;BME280;11452;53.368;14.658;2022-12-07T10:36:55;100155.26;;;4.90;78.88
22572;BME280;11452;53.368;14.658;2022-12-07T10:42:02;100161.94;;;4.88;78.89
22572;BME280;11452;53.368;14.658;2022-12-07T10:47:35;100176.09;;;4.77;77.93
22572;BME280;11452;53.368;14.658;2022-12-07T10:52:56;100176.09;;;4.77;77.93
22572;BME280;11452;53.368;14.658;2022-12-07T10:58:37;100176.09;;;4.77;78.71
22572;BME280;11452;53.368;14.658;2022-12-07T11:09:32;100163.66;;;4.79;78.35
22572;BME280;11452;53.368;14.658;2022-12-07T11:14:58;100161.02;;;4.79;78.53
22572;BME280;11452;53.368;14.658;2022-12-07T11:25:47;100143.20;;;5.03;78.49
22572;BME280;11452;53.368;14.658;2022-12-07T11:30:57;100136.66;;;5.11;78.05
22572;BME280;11452;53.368;14.658;2022-12-07T11:41:11;100126.69;;;5.47;78.57
22572;BME280;11452;53.368;14.658;2022-12-07T11:46:18;100126.69;;;5.47;78.57
22572;BME280;11452;53.368;14.658;2022-12-07T11:51:26;100127.25;;;5.35;77.57
22572;BME280;11452;53.368;14.658;2022-12-07T11:56:36;100127.31;;;5.33;77.70
22572;BME280;11452;53.368;14.658;2022-12-07T12:02:11;100126.41;;;5.53;76.24
22572;BME280;11452;53.368;14.658;2022-12-07T12:07:17;100118.33;;;5.17;76.71
22572;BME280;11452;53.368;14.658;2022-12-07T12:23:40;100125.47;;;5.05;77.40
22572;BME280;11452;53.368;14.658;2022-12-07T12:33:58;100128.91;;;4.86;76.95
22572;BME280;11452;53.368;14.658;2022-12-07T12:54:36;100116.27;;;5.13;76.82
22572;BME280;11452;53.368;14.658;2022-12-07T13:05:01;100102.77;;;5.19;75.08
22572;BME280;11452;53.368;14.658;2022-12-07T13:26:42;100102.98;;;4.95;74.38
22572;BME280;11452;53.368;14.658;2022-12-07T13:36:53;100098.86;;;4.87;73.76
22572;BME280;11452;53.368;14.658;2022-12-07T13:42:06;100106.99;;;4.83;72.75
22572;BME280;11452;53.368;14.658;2022-12-07T13:47:25;100106.99;;;4.83;72.75
22572;BME280;11452;53.368;14.658;2022-12-07T13:52:30;100110.91;;;4.74;73.22
22572;BME280;11452;53.368;14.658;2022-12-07T13:57:36;100110.77;;;4.67;72.57
22572;BME280;11452;53.368;14.658;2022-12-07T14:02:59;100117.26;;;4.60;72.54
22572;BME280;11452;53.368;14.658;2022-12-07T14:13:31;100126.12;;;4.59;71.89
22572;BME280;11452;53.368;14.658;2022-12-07T14:18:40;100138.11;;;4.46;71.79
22572;BME280;11452;53.368;14.658;2022-12-07T14:29:32;100135.33;;;4.17;71.36
22572;BME280;11452;53.368;14.658;2022-12-07T14:34:38;100141.52;;;4.06;71.50
22572;BME280;11452;53.368;14.658;2022-12-07T14:39:43;100138.67;;;4.10;72.20
22572;BME280;11452;53.368;14.658;2022-12-07T14:44:48;100139.91;;;4.02;71.83
22572;BME280;11452;53.368;14.658;2022-12-07T14:49:54;100144.02;;;4.09;71.76
22572;BME280;11452;53.368;14.658;2022-12-07T14:55:01;100133.38;;;4.10;72.15
22572;BME280;11452;53.368;14.658;2022-12-07T15:00:13;100134.24;;;4.11;71.69
22572;BME280;11452;53.368;14.658;2022-12-07T15:05:17;100134.47;;;4.16;71.63
22572;BME280;11452;53.368;14.658;2022-12-07T15:10:25;100132.98;;;4.09;71.70
22572;BME280;11452;53.368;14.658;2022-12-07T15:15:35;100128.41;;;4.03;71.91
22572;BME280;11452;53.368;14.658;2022-12-07T15:20:41;100125.66;;;4.06;72.20
22572;BME280;11452;53.368;14.658;2022-12-07T15:25:48;100119.81;;;4.20;72.33
22572;BME280;11452;53.368;14.658;2022-12-07T15:30:54;100111.07;;;4.17;72.20
22572;BME280;11452;53.368;14.658;2022-12-07T15:35:59;100108.48;;;4.16;72.21
22572;BME280;11452;53.368;14.658;2022-12-07T15:41:05;100118.37;;;4.11;72.24
22572;BME280;11452;53.368;14.658;2022-12-07T15:46:10;100110.11;;;4.08;72.32
22572;BME280;11452;53.368;14.658;2022-12-07T15:51:15;100108.55;;;4.14;72.54
22572;BME280;11452;53.368;14.658;2022-12-07T15:56:23;100103.89;;;4.09;72.17
22572;BME280;11452;53.368;14.658;2022-12-07T16:01:28;100108.33;;;4.09;72.49
22572;BME280;11452;53.368;14.658;2022-12-07T16:06:34;100105.48;;;4.03;72.25
22572;BME280;11452;53.368;14.658;2022-12-07T16:11:39;100103.84;;;4.11;72.64
22572;BME280;11452;53.368;14.658;2022-12-07T16:16:45;100106.75;;;4.05;72.29
22572;BME280;11452;53.368;14.658;2022-12-07T16:21:50;100101.53;;;4.13;72.74
22572;BME280;11452;53.368;14.658;2022-12-07T16:26:56;100105.45;;;4.15;72.04
22572;BME280;11452;53.368;14.658;2022-12-07T16:32:01;100092.22;;;4.15;71.75
22572;BME280;11452;53.368;14.658;2022-12-07T16:37:07;100093.65;;;4.24;71.98
22572;BME280;11452;53.368;14.658;2022-12-07T16:42:12;100093.59;;;4.25;70.92
22572;BME280;11452;53.368;14.658;2022-12-07T16:47:18;100089.62;;;4.25;71.26
22572;BME280;11452;53.368;14.658;2022-12-07T16:52:23;100088.88;;;4.22;70.88
22572;BME280;11452;53.368;14.658;2022-12-07T16:57:30;100085.89;;;4.19;70.31
22572;BME280;11452;53.368;14.658;2022-12-07T17:02:36;100080.50;;;4.10;69.89
22572;BME280;11452;53.368;14.658;2022-12-07T17:07:42;100084.81;;;4.13;70.11
22572;BME280;11452;53.368;14.658;2022-12-07T17:12:48;100078.20;;;4.13;69.40
22572;BME280;11452;53.368;14.658;2022-12-07T17:17:57;100071.92;;;4.05;69.17
22572;BME280;11452;53.368;14.658;2022-12-07T17:23:02;100085.09;;;4.17;69.15
22572;BME280;11452;53.368;14.658;2022-12-07T17:28:07;100076.58;;;3.99;68.33
22572;BME280;11452;53.368;14.658;2022-12-07T17:33:13;100072.09;;;4.01;68.99
22572;BME280;11452;53.368;14.658;2022-12-07T17:38:18;100074.00;;;3.97;68.55
22572;BME280;11452;53.368;14.658;2022-12-07T17:43:24;100085.03;;;3.97;68.60
22572;BME280;11452;53.368;14.658;2022-12-07T17:48:29;100070.81;;;3.89;68.43
22572;BME280;11452;53.368;14.658;2022-12-07T17:53:35;100075.55;;;4.03;68.74
22572;BME280;11452;53.368;14.658;2022-12-07T17:58:40;100076.06;;;4.01;68.21
22572;BME280;11452;53.368;14.658;2022-12-07T18:03:45;100074.00;;;3.97;68.59
22572;BME280;11452;53.368;14.658;2022-12-07T18:08:51;100078.19;;;4.03;68.40
22572;BME280;11452;53.368;14.658;2022-12-07T18:13:57;100083.36;;;4.06;68.69
22572;BME280;11452;53.368;14.658;2022-12-07T18:19:05;100071.30;;;4.09;68.50
22572;BME280;11452;53.368;14.658;2022-12-07T18:24:14;100071.65;;;4.11;68.46
22572;BME280;11452;53.368;14.658;2022-12-07T18:29:20;100083.48;;;4.13;68.79
22572;BME280;11452;53.368;14.658;2022-12-07T18:34:25;100079.00;;;4.15;68.09
22572;BME280;11452;53.368;14.658;2022-12-07T18:39:32;100070.48;;;4.18;68.64
22572;BME280;11452;53.368;14.658;2022-12-07T18:44:37;100067.78;;;4.20;68.19
22572;BME280;11452;53.368;14.658;2022-12-07T18:49:43;100073.54;;;4.30;68.50
22572;BME280;11452;53.368;14.658;2022-12-07T18:54:48;100078.77;;;4.31;68.24
22572;BME280;11452;53.368;14.658;2022-12-07T18:59:54;100090.44;;;4.15;68.11
22572;BME280;11452;53.368;14.658;2022-12-07T19:05:00;100086.25;;;4.10;68.00
22572;BME280;11452;53.368;14.658;2022-12-07T19:10:07;100099.47;;;4.10;68.37
22572;BME280;11452;53.368;14.658;2022-12-07T19:15:13;100090.32;;;4.18;68.49
22572;BME280;11452;53.368;14.658;2022-12-07T19:20:19;100105.20;;;4.21;68.06
22572;BME280;11452;53.368;14.658;2022-12-07T19:25:24;100104.63;;;4.25;68.11
22572;BME280;11452;53.368;14.658;2022-12-07T19:30:30;100119.13;;;4.14;68.14
22572;BME280;11452;53.368;14.658;2022-12-07T19:35:35;100112.80;;;4.18;68.26
22572;BME280;11452;53.368;14.658;2022-12-07T19:40:40;100124.59;;;4.10;67.76
22572;BME280;11452;53.368;14.658;2022-12-07T19:45:46;100128.03;;;4.12;68.07
22572;BME280;11452;53.368;14.658;2022-12-07T19:50:52;100126.12;;;4.05;68.30
22572;BME280;11452;53.368;14.658;2022-12-07T19:55:57;100132.75;;;4.15;68.43
22572;BME280;11452;53.368;14.658;2022-12-07T20:01:03;100136.34;;;4.03;68.53
22572;BME280;11452;53.368;14.658;2022-12-07T20:06:15;100124.39;;;3.93;68.38
22572;BME280;11452;53.368;14.658;2022-12-07T20:11:20;100130.00;;;3.85;69.08
22572;BME280;11452;53.368;14.658;2022-12-07T20:16:45;100134.63;;;3.90;69.51
22572;BME280;11452;53.368;14.658;2022-12-07T20:21:51;100132.75;;;3.82;69.67
22572;BME280;11452;53.368;14.658;2022-12-07T20:26:56;100142.92;;;3.81;70.01
22572;BME280;11452;53.368;14.658;2022-12-07T20:32:02;100158.38;;;3.80;70.25
22572;BME280;11452;53.368;14.658;2022-12-07T20:37:08;100143.95;;;3.77;70.50
22572;BME280;11452;53.368;14.658;2022-12-07T20:42:13;100139.47;;;3.79;70.27
22572;BME280;11452;53.368;14.658;2022-12-07T20:47:37;100139.98;;;3.77;70.66
22572;BME280;11452;53.368;14.658;2022-12-07T20:52:42;100145.03;;;3.71;70.69
22572;BME280;11452;53.368;14.658;2022-12-07T20:57:48;100147.06;;;3.65;70.35
22572;BME280;11452;53.368;14.658;2022-12-07T21:02:53;100150.73;;;3.61;70.18
22572;BME280;11452;53.368;14.658;2022-12-07T21:08:00;100154.94;;;4.11;67.98
22572;BME280;11452;53.368;14.658;2022-12-07T21:13:08;100161.64;;;3.75;69.17
22572;BME280;11452;53.368;14.658;2022-12-07T21:18:13;100167.15;;;3.57;69.57
22572;BME280;11452;53.368;14.658;2022-12-07T21:23:18;100170.71;;;3.44;69.91
22572;BME280;11452;53.368;14.658;2022-12-07T21:28:24;100176.16;;;3.40;70.07
22572;BME280;11452;53.368;14.658;2022-12-07T21:33:31;100181.42;;;3.28;70.02
22572;BME280;11452;53.368;14.658;2022-12-07T21:38:37;100187.47;;;3.19;70.23
22572;BME280;11452;53.368;14.658;2022-12-07T21:43:43;100194.38;;;3.23;70.09
22572;BME280;11452;53.368;14.658;2022-12-07T21:48:54;100192.07;;;3.13;70.18
22572;BME280;11452;53.368;14.658;2022-12-07T21:54:02;100196.38;;;3.03;70.12
22572;BME280;11452;53.368;14.658;2022-12-07T21:59:11;100200.16;;;3.70;68.48
22572;BME280;11452;53.368;14.658;2022-12-07T22:04:22;100219.86;;;3.24;69.36
22572;BME280;11452;53.368;14.658;2022-12-07T22:09:28;100210.14;;;3.12;69.63
22572;BME280;11452;53.368;14.658;2022-12-07T22:14:34;100214.35;;;3.05;69.92
22572;BME280;11452;53.368;14.658;2022-12-07T22:19:57;100214.59;;;2.97;70.07
22572;BME280;11452;53.368;14.658;2022-12-07T22:25:03;100221.42;;;2.91;70.30
22572;BME280;11452;53.368;14.658;2022-12-07T22:30:11;100220.16;;;2.76;70.42
22572;BME280;11452;53.368;14.658;2022-12-07T22:35:16;100223.80;;;2.72;70.53
22572;BME280;11452;53.368;14.658;2022-12-07T22:40:22;100219.34;;;2.74;70.62
22572;BME280;11452;53.368;14.658;2022-12-07T22:45:27;100214.52;;;2.74;70.82
22572;BME280;11452;53.368;14.658;2022-12-07T22:50:33;100221.66;;;2.84;71.81
22572;BME280;11452;53.368;14.658;2022-12-07T22:55:39;100215.23;;;2.92;71.08
22572;BME280;11452;53.368;14.658;2022-12-07T23:00:46;100213.34;;;2.83;71.06
22572;BME280;11452;53.368;14.658;2022-12-07T23:05:51;100210.80;;;2.79;71.20
22572;BME280;11452;53.368;14.658;2022-12-07T23:10:57;100222.44;;;2.74;70.87
22572;BME280;11452;53.368;14.658;2022-12-07T23:16:11;100220.58;;;2.63;71.13
22572;BME280;11452;53.368;14.658;2022-12-07T23:21:17;100223.27;;;2.61;71.13
22572;BME280;11452;53.368;14.658;2022-12-07T23:26:22;100225.36;;;2.65;71.37
22572;BME280;11452;53.368;14.658;2022-12-07T23:31:28;100225.62;;;2.57;71.43
22572;BME280;11452;53.368;14.658;2022-12-07T23:36:33;100228.67;;;2.58;71.30
22572;BME280;11452;53.368;14.658;2022-12-07T23:41:39;100227.39;;;2.57;71.63
22572;BME280;11452;53.368;14.658;2022-12-07T23:46:45;100236.00;;;2.62;71.70
22572;BME280;11452;53.368;14.658;2022-12-07T23:51:50;100229.63;;;2.56;71.40
22572;BME280;11452;53.368;14.658;2022-12-07T23:56:56;100230.22;;;2.51;71.33
